createdAt,value
2017-12-20T00:00:19.618Z,0.00
2017-12-20T00:00:54.648Z,0.00
2017-12-20T00:01:30.122Z,0.00
2017-12-20T00:02:05.327Z,0.00
2017-12-20T00:02:40.708Z,0.00
2017-12-20T00:03:15.999Z,0.00
2017-12-20T00:03:51.005Z,0.00
2017-12-20T00:04:26.078Z,0.00
2017-12-20T00:05:01.283Z,0.00
2017-12-20T00:05:36.648Z,0.00
2017-12-20T00:06:12.178Z,0.00
2017-12-20T00:06:47.656Z,0.00
2017-12-20T00:07:22.743Z,0.00
2017-12-20T00:07:58.313Z,0.00
2017-12-20T00:08:33.507Z,0.00
2017-12-20T00:09:08.885Z,0.00
2017-12-20T00:09:44.089Z,0.00
2017-12-20T00:10:19.497Z,0.00
2017-12-20T00:10:54.893Z,0.00
2017-12-20T00:11:30.282Z,0.00
2017-12-20T00:12:05.457Z,0.00
2017-12-20T00:12:40.653Z,0.00
2017-12-20T00:13:16.121Z,0.00
2017-12-20T00:13:51.530Z,0.00
2017-12-20T00:14:26.503Z,0.00
2017-12-20T00:15:01.500Z,0.00
2017-12-20T00:15:37.104Z,0.00
2017-12-20T00:16:12.709Z,0.00
2017-12-20T00:16:48.193Z,0.00
2017-12-20T00:17:23.671Z,0.00
2017-12-20T00:17:59.074Z,0.00
2017-12-20T00:18:34.452Z,0.00
2017-12-20T00:19:09.645Z,0.00
2017-12-20T00:19:44.616Z,0.00
2017-12-20T00:20:20.115Z,0.00
2017-12-20T00:20:55.623Z,0.00
2017-12-20T00:21:31.214Z,0.00
2017-12-20T00:22:06.720Z,0.00
2017-12-20T00:22:41.782Z,0.00
2017-12-20T00:23:16.983Z,0.00
2017-12-20T00:23:52.057Z,0.00
2017-12-20T00:24:27.255Z,0.00
2017-12-20T00:25:03.624Z,0.00
2017-12-20T00:25:39.127Z,0.00
2017-12-20T00:26:15.130Z,0.00
2017-12-20T00:26:50.532Z,0.00
2017-12-20T00:27:25.830Z,0.00
2017-12-20T00:28:01.094Z,0.00
2017-12-20T00:28:36.592Z,0.00
2017-12-20T00:29:11.858Z,0.00
2017-12-20T00:29:47.654Z,0.00
2017-12-20T00:30:22.821Z,0.00
2017-12-20T00:30:57.911Z,0.00
2017-12-20T00:31:33.122Z,0.00
2017-12-20T00:32:08.511Z,0.00
2017-12-20T00:32:44.010Z,0.00
2017-12-20T00:33:19.482Z,0.00
2017-12-20T00:33:54.778Z,0.00
2017-12-20T00:34:29.951Z,0.00
2017-12-20T00:35:05.242Z,0.00
2017-12-20T00:35:40.521Z,0.00
2017-12-20T00:36:15.646Z,0.00
2017-12-20T00:36:50.814Z,0.00
2017-12-20T00:37:26.611Z,0.00
2017-12-20T00:38:01.893Z,0.00
2017-12-20T00:38:37.200Z,0.00
2017-12-20T00:39:12.397Z,0.00
2017-12-20T00:39:47.774Z,0.00
2017-12-20T00:40:22.984Z,0.00
2017-12-20T00:40:58.353Z,0.00
2017-12-20T00:41:33.486Z,0.00
2017-12-20T00:42:08.754Z,0.00
2017-12-20T00:42:44.060Z,0.00
2017-12-20T00:43:19.436Z,0.00
2017-12-20T00:43:54.735Z,0.00
2017-12-20T00:44:30.238Z,0.00
2017-12-20T00:45:05.603Z,0.00
2017-12-20T00:45:41.101Z,0.00
2017-12-20T00:46:16.497Z,0.00
2017-12-20T00:46:51.999Z,0.00
2017-12-20T00:47:27.274Z,0.00
2017-12-20T00:48:02.479Z,0.00
2017-12-20T00:48:37.646Z,0.00
2017-12-20T00:49:12.847Z,0.00
2017-12-20T00:49:48.162Z,0.00
2017-12-20T00:50:23.343Z,0.00
2017-12-20T00:50:58.641Z,0.00
2017-12-20T00:51:33.735Z,0.00
2017-12-20T00:52:08.930Z,0.00
2017-12-20T00:52:44.199Z,0.00
2017-12-20T00:53:19.499Z,0.00
2017-12-20T00:53:54.776Z,0.00
2017-12-20T00:54:30.077Z,0.00
2017-12-20T00:55:05.251Z,0.00
2017-12-20T00:55:40.548Z,0.00
2017-12-20T00:56:16.154Z,0.00
2017-12-20T00:56:51.439Z,0.00
2017-12-20T00:57:26.739Z,0.00
2017-12-20T00:58:02.314Z,0.00
2017-12-20T00:58:37.604Z,0.00
2017-12-20T00:59:13.091Z,0.00
2017-12-20T00:59:48.674Z,0.00
2017-12-20T01:00:23.950Z,0.00
2017-12-20T01:00:58.837Z,0.00
2017-12-20T01:01:34.166Z,0.00
2017-12-20T01:02:09.543Z,0.00
2017-12-20T01:02:45.140Z,0.00
2017-12-20T01:03:20.514Z,0.00
2017-12-20T01:03:55.711Z,0.00
2017-12-20T01:04:31.287Z,0.00
2017-12-20T01:05:06.881Z,0.00
2017-12-20T01:05:42.255Z,0.00
2017-12-20T01:06:17.756Z,0.00
2017-12-20T01:06:52.778Z,0.00
2017-12-20T01:07:28.061Z,0.00
2017-12-20T01:08:03.359Z,0.00
2017-12-20T01:08:38.632Z,0.00
2017-12-20T01:09:13.827Z,0.00
2017-12-20T01:09:48.911Z,0.00
2017-12-20T01:10:24.525Z,0.00
2017-12-20T01:11:00.116Z,0.00
2017-12-20T01:11:35.339Z,0.00
2017-12-20T01:12:10.907Z,0.00
2017-12-20T01:12:46.501Z,0.00
2017-12-20T01:13:21.797Z,0.00
2017-12-20T01:13:57.064Z,0.00
2017-12-20T01:14:32.469Z,0.00
2017-12-20T01:15:07.737Z,0.00
2017-12-20T01:15:43.550Z,0.00
2017-12-20T01:16:19.016Z,0.00
2017-12-20T01:16:54.644Z,0.00
2017-12-20T01:17:30.419Z,0.00
2017-12-20T01:18:05.716Z,0.00
2017-12-20T01:18:41.114Z,0.00
2017-12-20T01:19:16.483Z,0.00
2017-12-20T01:19:51.690Z,0.00
2017-12-20T01:20:27.162Z,0.00
2017-12-20T01:21:02.568Z,0.00
2017-12-20T01:21:38.083Z,0.00
2017-12-20T01:22:13.484Z,0.00
2017-12-20T01:22:48.957Z,0.00
2017-12-20T01:23:24.453Z,0.00
2017-12-20T01:24:00.167Z,0.00
2017-12-20T01:24:35.340Z,0.00
2017-12-20T01:25:10.637Z,0.00
2017-12-20T01:25:45.909Z,0.00
2017-12-20T01:26:21.408Z,0.00
2017-12-20T01:26:56.808Z,0.00
2017-12-20T01:27:32.004Z,0.00
2017-12-20T01:28:07.288Z,0.00
2017-12-20T01:28:42.387Z,0.00
2017-12-20T01:29:17.560Z,0.00
2017-12-20T01:29:52.756Z,0.00
2017-12-20T01:30:27.973Z,0.00
2017-12-20T01:31:03.345Z,0.00
2017-12-20T01:31:38.639Z,0.00
2017-12-20T01:32:14.040Z,0.00
2017-12-20T01:32:49.632Z,0.00
2017-12-20T01:33:24.712Z,0.00
2017-12-20T01:34:00.425Z,0.00
2017-12-20T01:34:35.491Z,0.00
2017-12-20T01:35:10.790Z,0.00
2017-12-20T01:35:46.302Z,0.00
2017-12-20T01:36:21.880Z,0.00
2017-12-20T01:36:57.200Z,0.00
2017-12-20T01:37:32.483Z,0.00
2017-12-20T01:38:07.781Z,0.00
2017-12-20T01:38:43.264Z,0.00
2017-12-20T01:39:18.469Z,0.00
2017-12-20T01:39:53.744Z,0.00
2017-12-20T01:40:28.965Z,0.00
2017-12-20T01:41:04.364Z,0.00
2017-12-20T01:41:39.637Z,0.00
2017-12-20T01:42:14.866Z,0.00
2017-12-20T01:42:50.538Z,0.00
2017-12-20T01:43:26.244Z,0.00
2017-12-20T01:44:01.616Z,0.00
2017-12-20T01:44:37.014Z,0.00
2017-12-20T01:45:12.285Z,0.00
2017-12-20T01:45:47.689Z,0.00
2017-12-20T01:46:23.263Z,0.00
2017-12-20T01:46:58.490Z,0.00
2017-12-20T01:47:33.787Z,0.00
2017-12-20T01:48:08.755Z,0.00
2017-12-20T01:48:44.461Z,0.00
2017-12-20T01:49:20.125Z,0.00
2017-12-20T01:49:55.444Z,0.00
2017-12-20T01:50:30.716Z,0.00
2017-12-20T01:51:06.012Z,0.00
2017-12-20T01:51:41.088Z,0.00
2017-12-20T01:52:16.512Z,0.00
2017-12-20T01:52:51.814Z,0.00
2017-12-20T01:53:27.099Z,0.00
2017-12-20T01:54:02.407Z,0.00
2017-12-20T01:54:37.477Z,0.00
2017-12-20T01:55:13.081Z,0.00
2017-12-20T01:55:48.250Z,0.00
2017-12-20T01:56:23.743Z,0.00
2017-12-20T01:56:59.127Z,0.00
2017-12-20T01:57:34.646Z,0.00
2017-12-20T01:58:09.547Z,0.00
2017-12-20T01:58:44.719Z,0.00
2017-12-20T01:59:20.015Z,0.00
2017-12-20T01:59:55.387Z,0.00
2017-12-20T02:00:30.590Z,0.00
2017-12-20T02:01:05.760Z,0.00
2017-12-20T02:01:41.059Z,0.00
2017-12-20T02:02:16.360Z,0.00
2017-12-20T02:02:51.855Z,0.00
2017-12-20T02:03:27.334Z,0.00
2017-12-20T02:04:02.830Z,0.00
2017-12-20T02:04:37.932Z,0.00
2017-12-20T02:05:13.107Z,0.00
2017-12-20T02:05:48.508Z,0.00
2017-12-20T02:06:23.988Z,0.00
2017-12-20T02:06:59.283Z,0.00
2017-12-20T02:07:34.582Z,0.00
2017-12-20T02:08:09.471Z,0.00
2017-12-20T02:08:45.344Z,0.00
2017-12-20T02:09:20.686Z,0.00
2017-12-20T02:09:55.952Z,0.00
2017-12-20T02:10:31.130Z,0.00
2017-12-20T02:11:06.428Z,0.00
2017-12-20T02:11:41.897Z,0.00
2017-12-20T02:12:17.115Z,0.00
2017-12-20T02:12:52.489Z,0.00
2017-12-20T02:13:27.788Z,0.00
2017-12-20T02:14:03.067Z,0.00
2017-12-20T02:14:38.362Z,0.00
2017-12-20T02:15:13.564Z,0.00
2017-12-20T02:15:48.731Z,0.00
2017-12-20T02:16:24.524Z,0.00
2017-12-20T02:16:59.693Z,0.00
2017-12-20T02:17:35.216Z,0.00
2017-12-20T02:18:10.485Z,0.00
2017-12-20T02:18:45.883Z,0.00
2017-12-20T02:19:21.254Z,0.00
2017-12-20T02:19:56.459Z,0.00
2017-12-20T02:20:31.835Z,0.00
2017-12-20T02:21:06.940Z,0.00
2017-12-20T02:21:42.518Z,0.00
2017-12-20T02:22:18.026Z,0.00
2017-12-20T02:22:53.658Z,0.00
2017-12-20T02:23:29.043Z,0.00
2017-12-20T02:24:04.419Z,0.00
2017-12-20T02:24:39.726Z,0.00
2017-12-20T02:25:15.098Z,0.00
2017-12-20T02:25:50.601Z,0.00
2017-12-20T02:26:26.176Z,0.00
2017-12-20T02:27:01.490Z,0.00
2017-12-20T02:27:37.562Z,0.00
2017-12-20T02:28:12.902Z,0.00
2017-12-20T02:28:48.281Z,0.00
2017-12-20T02:29:23.471Z,0.00
2017-12-20T02:29:58.653Z,0.00
2017-12-20T02:30:34.361Z,0.00
2017-12-20T02:31:09.539Z,0.00
2017-12-20T02:31:44.735Z,0.00
2017-12-20T02:32:19.604Z,0.00
2017-12-20T02:32:54.900Z,0.00
2017-12-20T02:33:30.497Z,0.00
2017-12-20T02:34:05.696Z,0.00
2017-12-20T02:34:40.967Z,0.00
2017-12-20T02:35:16.669Z,0.00
2017-12-20T02:35:51.843Z,0.00
2017-12-20T02:36:27.036Z,0.00
2017-12-20T02:37:02.412Z,0.00
2017-12-20T02:37:37.715Z,0.00
2017-12-20T02:38:13.088Z,0.00
2017-12-20T02:38:48.527Z,0.00
2017-12-20T02:39:24.003Z,0.00
2017-12-20T02:39:59.099Z,0.00
2017-12-20T02:40:34.640Z,0.00
2017-12-20T02:41:09.816Z,0.00
2017-12-20T02:41:45.107Z,0.00
2017-12-20T02:42:20.432Z,0.00
2017-12-20T02:42:55.818Z,0.00
2017-12-20T02:43:31.326Z,0.00
2017-12-20T02:44:06.748Z,0.00
2017-12-20T02:44:42.259Z,0.00
2017-12-20T02:45:17.642Z,0.00
2017-12-20T02:45:52.838Z,0.00
2017-12-20T02:46:28.044Z,0.00
2017-12-20T02:47:03.441Z,0.00
2017-12-20T02:47:40.424Z,0.00
2017-12-20T02:48:15.649Z,0.00
2017-12-20T02:48:51.035Z,0.00
2017-12-20T02:49:26.161Z,0.00
2017-12-20T02:50:01.537Z,0.00
2017-12-20T02:50:37.191Z,0.00
2017-12-20T02:51:12.566Z,0.00
2017-12-20T02:51:47.972Z,0.00
2017-12-20T02:52:23.346Z,0.00
2017-12-20T02:52:58.656Z,0.00
2017-12-20T02:53:34.047Z,0.00
2017-12-20T02:54:09.271Z,0.00
2017-12-20T02:54:44.694Z,0.00
2017-12-20T02:55:19.918Z,0.00
2017-12-20T02:55:55.204Z,0.00
2017-12-20T02:56:30.503Z,0.00
2017-12-20T02:57:05.700Z,0.00
2017-12-20T02:57:41.010Z,0.00
2017-12-20T02:58:16.300Z,0.00
2017-12-20T02:58:51.824Z,0.00
2017-12-20T02:59:27.112Z,0.00
2017-12-20T03:00:02.651Z,0.00
2017-12-20T03:00:38.042Z,0.00
2017-12-20T03:01:13.435Z,0.00
2017-12-20T03:01:48.517Z,0.00
2017-12-20T03:02:23.519Z,0.00
2017-12-20T03:02:58.799Z,0.00
2017-12-20T03:03:34.099Z,0.00
2017-12-20T03:04:09.555Z,0.00
2017-12-20T03:04:44.671Z,0.00
2017-12-20T03:05:19.993Z,0.00
2017-12-20T03:05:55.590Z,0.00
2017-12-20T03:06:30.760Z,0.00
2017-12-20T03:07:06.256Z,0.00
2017-12-20T03:07:43.318Z,0.00
2017-12-20T03:08:18.711Z,0.00
2017-12-20T03:08:54.280Z,0.00
2017-12-20T03:09:29.575Z,0.00
2017-12-20T03:10:04.547Z,0.00
2017-12-20T03:10:39.969Z,0.00
2017-12-20T03:11:15.140Z,0.00
2017-12-20T03:11:50.336Z,0.00
2017-12-20T03:12:25.502Z,0.00
2017-12-20T03:13:00.798Z,0.00
2017-12-20T03:13:36.070Z,0.00
2017-12-20T03:14:11.370Z,0.00
2017-12-20T03:14:46.545Z,0.00
2017-12-20T03:15:22.042Z,0.00
2017-12-20T03:15:57.659Z,0.00
2017-12-20T03:16:33.358Z,0.00
2017-12-20T03:17:08.634Z,0.00
2017-12-20T03:17:43.643Z,0.00
2017-12-20T03:18:18.923Z,0.00
2017-12-20T03:18:54.462Z,0.00
2017-12-20T03:19:29.647Z,0.00
2017-12-20T03:20:04.734Z,0.00
2017-12-20T03:20:40.215Z,0.00
2017-12-20T03:21:15.450Z,0.00
2017-12-20T03:21:50.645Z,0.00
2017-12-20T03:22:25.554Z,0.00
2017-12-20T03:23:00.833Z,0.00
2017-12-20T03:23:36.259Z,0.00
2017-12-20T03:24:11.648Z,0.00
2017-12-20T03:24:47.470Z,0.00
2017-12-20T03:25:22.978Z,0.00
2017-12-20T03:25:58.393Z,0.00
2017-12-20T03:26:33.904Z,0.00
2017-12-20T03:27:09.528Z,0.00
2017-12-20T03:27:44.823Z,0.00
2017-12-20T03:28:19.941Z,0.00
2017-12-20T03:28:55.334Z,0.00
2017-12-20T03:29:30.549Z,0.00
2017-12-20T03:30:05.748Z,0.00
2017-12-20T03:30:41.168Z,0.00
2017-12-20T03:31:16.264Z,0.00
2017-12-20T03:31:51.531Z,0.00
2017-12-20T03:32:26.523Z,0.00
2017-12-20T03:33:01.947Z,0.00
2017-12-20T03:33:37.143Z,0.00
2017-12-20T03:34:12.472Z,0.00
2017-12-20T03:34:47.768Z,0.00
2017-12-20T03:35:23.082Z,0.00
2017-12-20T03:35:58.576Z,0.00
2017-12-20T03:36:33.998Z,0.00
2017-12-20T03:37:09.546Z,0.00
2017-12-20T03:37:44.956Z,0.00
2017-12-20T03:38:20.346Z,0.00
2017-12-20T03:38:55.760Z,0.00
2017-12-20T03:39:31.049Z,0.00
2017-12-20T03:40:06.383Z,0.00
2017-12-20T03:40:41.774Z,0.00
2017-12-20T03:41:17.094Z,0.00
2017-12-20T03:41:52.283Z,0.00
2017-12-20T03:42:27.939Z,0.00
2017-12-20T03:43:03.133Z,0.00
2017-12-20T03:43:38.255Z,0.00
2017-12-20T03:44:13.552Z,0.00
2017-12-20T03:44:48.967Z,0.00
2017-12-20T03:45:24.456Z,0.00
2017-12-20T03:45:59.677Z,0.00
2017-12-20T03:46:35.070Z,0.00
2017-12-20T03:47:10.396Z,0.00
2017-12-20T03:47:45.615Z,0.00
2017-12-20T03:48:21.241Z,0.00
2017-12-20T03:48:56.539Z,0.00
2017-12-20T03:49:31.567Z,0.00
2017-12-20T03:50:07.154Z,0.00
2017-12-20T03:50:42.675Z,0.00
2017-12-20T03:51:17.971Z,0.00
2017-12-20T03:51:53.389Z,0.00
2017-12-20T03:52:28.990Z,0.00
2017-12-20T03:53:04.522Z,0.00
2017-12-20T03:53:39.603Z,0.00
2017-12-20T03:54:14.914Z,0.00
2017-12-20T03:54:50.500Z,0.00
2017-12-20T03:55:25.822Z,0.00
2017-12-20T03:56:01.200Z,0.00
2017-12-20T03:56:36.511Z,0.00
2017-12-20T03:57:12.404Z,0.00
2017-12-20T03:57:47.911Z,0.00
2017-12-20T03:58:23.523Z,0.00
2017-12-20T03:58:58.829Z,0.00
2017-12-20T03:59:34.112Z,0.00
2017-12-20T04:00:09.321Z,0.00
2017-12-20T04:00:44.599Z,0.00
2017-12-20T04:01:19.803Z,0.00
2017-12-20T04:01:55.366Z,0.00
2017-12-20T04:02:30.768Z,0.00
2017-12-20T04:03:06.241Z,0.00
2017-12-20T04:03:41.766Z,0.00
2017-12-20T04:04:17.090Z,0.00
2017-12-20T04:04:52.427Z,0.00
2017-12-20T04:05:27.690Z,0.00
2017-12-20T04:06:02.887Z,0.00
2017-12-20T04:06:38.065Z,0.00
2017-12-20T04:07:13.256Z,0.00
2017-12-20T04:07:48.426Z,0.00
2017-12-20T04:08:23.627Z,0.00
2017-12-20T04:08:58.928Z,0.00
2017-12-20T04:09:34.323Z,0.00
2017-12-20T04:10:09.728Z,0.00
2017-12-20T04:10:44.892Z,0.00
2017-12-20T04:11:20.091Z,0.00
2017-12-20T04:11:55.386Z,0.00
2017-12-20T04:12:30.552Z,0.00
2017-12-20T04:13:05.919Z,0.00
2017-12-20T04:13:41.516Z,0.00
2017-12-20T04:14:17.019Z,0.00
2017-12-20T04:14:52.215Z,0.00
2017-12-20T04:15:27.561Z,0.00
2017-12-20T04:16:02.732Z,0.00
2017-12-20T04:16:38.022Z,0.00
2017-12-20T04:17:13.188Z,0.00
2017-12-20T04:17:48.977Z,0.00
2017-12-20T04:18:24.344Z,0.00
2017-12-20T04:18:59.641Z,0.00
2017-12-20T04:19:35.139Z,0.00
2017-12-20T04:20:10.434Z,0.00
2017-12-20T04:20:45.830Z,0.00
2017-12-20T04:21:21.203Z,0.00
2017-12-20T04:21:56.398Z,0.00
2017-12-20T04:22:31.569Z,0.00
2017-12-20T04:23:06.958Z,0.00
2017-12-20T04:23:42.237Z,0.00
2017-12-20T04:24:17.529Z,0.00
2017-12-20T04:24:52.629Z,0.00
2017-12-20T04:25:28.218Z,0.00
2017-12-20T04:26:03.687Z,0.00
2017-12-20T04:26:39.778Z,0.00
2017-12-20T04:27:15.288Z,0.00
2017-12-20T04:27:50.757Z,0.00
2017-12-20T04:28:26.055Z,0.00
2017-12-20T04:29:01.230Z,0.00
2017-12-20T04:29:36.634Z,0.00
2017-12-20T04:30:11.927Z,0.00
2017-12-20T04:30:47.421Z,0.00
2017-12-20T04:31:22.687Z,0.00
2017-12-20T04:31:58.080Z,0.00
2017-12-20T04:32:33.173Z,0.00
2017-12-20T04:33:08.250Z,0.00
2017-12-20T04:33:43.650Z,0.00
2017-12-20T04:34:19.018Z,0.00
2017-12-20T04:34:54.413Z,0.00
2017-12-20T04:35:29.900Z,0.00
2017-12-20T04:36:05.198Z,0.00
2017-12-20T04:36:40.465Z,0.00
2017-12-20T04:37:15.557Z,0.00
2017-12-20T04:37:50.747Z,0.00
2017-12-20T04:38:25.915Z,0.00
2017-12-20T04:39:01.309Z,0.00
2017-12-20T04:39:36.372Z,0.00
2017-12-20T04:40:11.571Z,0.00
2017-12-20T04:40:47.165Z,0.00
2017-12-20T04:41:22.254Z,0.00
2017-12-20T04:41:57.632Z,0.00
2017-12-20T04:42:33.223Z,0.00
2017-12-20T04:43:08.391Z,0.00
2017-12-20T04:43:43.883Z,0.00
2017-12-20T04:44:19.185Z,0.00
2017-12-20T04:44:54.459Z,0.00
2017-12-20T04:45:29.970Z,0.00
2017-12-20T04:46:05.171Z,0.00
2017-12-20T04:46:40.568Z,0.00
2017-12-20T04:47:15.635Z,0.00
2017-12-20T04:47:51.226Z,0.00
2017-12-20T04:48:26.591Z,0.00
2017-12-20T04:49:02.041Z,0.00
2017-12-20T04:49:37.382Z,0.00
2017-12-20T04:50:12.353Z,0.00
2017-12-20T04:50:47.956Z,0.00
2017-12-20T04:51:23.553Z,0.00
2017-12-20T04:51:58.839Z,0.00
2017-12-20T04:52:33.912Z,0.00
2017-12-20T04:53:09.312Z,0.00
2017-12-20T04:53:44.573Z,0.00
2017-12-20T04:54:19.774Z,0.00
2017-12-20T04:54:55.239Z,0.00
2017-12-20T04:55:30.931Z,0.00
2017-12-20T04:56:06.436Z,0.00
2017-12-20T04:56:41.638Z,0.00
2017-12-20T04:57:16.829Z,0.00
2017-12-20T04:57:52.312Z,0.00
2017-12-20T04:58:27.807Z,0.00
2017-12-20T04:59:03.344Z,0.00
2017-12-20T04:59:38.887Z,0.00
2017-12-20T05:00:14.050Z,0.00
2017-12-20T05:00:49.440Z,0.00
2017-12-20T05:01:24.544Z,0.00
2017-12-20T05:01:59.933Z,0.00
2017-12-20T05:02:35.336Z,0.00
2017-12-20T05:03:10.812Z,0.00
2017-12-20T05:03:46.204Z,0.00
2017-12-20T05:04:21.578Z,0.00
2017-12-20T05:04:56.884Z,0.00
2017-12-20T05:05:32.153Z,0.00
2017-12-20T05:06:07.545Z,0.00
2017-12-20T05:06:42.949Z,0.00
2017-12-20T05:07:18.145Z,0.00
2017-12-20T05:07:54.137Z,0.00
2017-12-20T05:08:29.401Z,0.00
2017-12-20T05:09:04.609Z,0.00
2017-12-20T05:09:40.082Z,0.00
2017-12-20T05:10:15.581Z,0.00
2017-12-20T05:10:50.749Z,0.00
2017-12-20T05:11:25.841Z,0.00
2017-12-20T05:12:00.938Z,0.00
2017-12-20T05:12:36.130Z,0.00
2017-12-20T05:13:11.419Z,0.00
2017-12-20T05:13:46.694Z,0.00
2017-12-20T05:14:22.031Z,0.00
2017-12-20T05:14:57.053Z,0.00
2017-12-20T05:15:32.249Z,0.00
2017-12-20T05:16:07.836Z,0.00
2017-12-20T05:16:43.225Z,0.00
2017-12-20T05:17:18.491Z,0.00
2017-12-20T05:17:53.916Z,0.00
2017-12-20T05:18:29.918Z,0.00
2017-12-20T05:19:05.086Z,0.00
2017-12-20T05:19:40.578Z,0.00
2017-12-20T05:20:15.950Z,0.00
2017-12-20T05:20:51.134Z,0.00
2017-12-20T05:21:26.202Z,0.00
2017-12-20T05:22:01.698Z,0.00
2017-12-20T05:22:36.873Z,0.00
2017-12-20T05:23:12.302Z,0.00
2017-12-20T05:23:47.603Z,0.00
2017-12-20T05:24:23.074Z,0.00
2017-12-20T05:24:59.586Z,0.00
2017-12-20T05:25:35.149Z,0.00
2017-12-20T05:26:10.355Z,0.00
2017-12-20T05:26:45.626Z,0.00
2017-12-20T05:27:20.825Z,0.00
2017-12-20T05:27:56.100Z,0.00
2017-12-20T05:28:31.625Z,0.00
2017-12-20T05:29:06.819Z,0.00
2017-12-20T05:29:41.890Z,0.00
2017-12-20T05:30:17.196Z,0.00
2017-12-20T05:30:52.361Z,0.00
2017-12-20T05:31:27.658Z,0.00
2017-12-20T05:32:02.828Z,0.00
2017-12-20T05:32:38.233Z,0.00
2017-12-20T05:33:13.806Z,0.00
2017-12-20T05:33:49.118Z,0.00
2017-12-20T05:34:24.600Z,0.00
2017-12-20T05:34:59.888Z,0.00
2017-12-20T05:35:35.489Z,0.00
2017-12-20T05:36:10.653Z,0.00
2017-12-20T05:36:45.750Z,0.00
2017-12-20T05:37:21.018Z,0.00
2017-12-20T05:37:56.516Z,0.00
2017-12-20T05:38:31.787Z,0.00
2017-12-20T05:39:07.100Z,12.00
2017-12-20T05:39:42.571Z,8.00
2017-12-20T05:40:17.970Z,8.00
2017-12-20T05:40:53.463Z,8.00
2017-12-20T05:41:28.628Z,8.00
2017-12-20T05:42:03.921Z,8.00
2017-12-20T05:42:39.206Z,8.00
2017-12-20T05:43:14.504Z,8.00
2017-12-20T05:43:49.877Z,8.00
2017-12-20T05:44:25.398Z,0.00
2017-12-20T05:45:01.071Z,0.00
2017-12-20T05:45:36.370Z,0.00
2017-12-20T05:46:12.065Z,0.00
2017-12-20T05:46:47.543Z,0.00
2017-12-20T05:47:22.733Z,0.00
2017-12-20T05:47:57.908Z,0.00
2017-12-20T05:48:33.201Z,0.00
2017-12-20T05:49:08.381Z,0.00
2017-12-20T05:49:43.603Z,0.00
2017-12-20T05:50:19.072Z,0.00
2017-12-20T05:50:54.463Z,0.00
2017-12-20T05:51:29.633Z,0.00
2017-12-20T05:52:04.924Z,0.00
2017-12-20T05:52:40.520Z,0.00
2017-12-20T05:53:15.802Z,0.00
2017-12-20T05:53:51.190Z,0.00
2017-12-20T05:54:26.263Z,0.00
2017-12-20T05:55:01.574Z,0.00
2017-12-20T05:55:37.039Z,0.00
2017-12-20T05:56:12.538Z,0.00
2017-12-20T05:56:47.911Z,0.00
2017-12-20T05:57:23.508Z,0.00
2017-12-20T05:57:58.704Z,0.00
2017-12-20T05:58:34.180Z,0.00
2017-12-20T05:59:09.566Z,0.00
2017-12-20T05:59:45.033Z,0.00
2017-12-20T06:00:20.154Z,0.00
2017-12-20T06:00:55.419Z,0.00
2017-12-20T06:01:30.729Z,0.00
2017-12-20T06:02:05.989Z,0.00
2017-12-20T06:02:41.294Z,0.00
2017-12-20T06:03:16.596Z,0.00
2017-12-20T06:03:52.062Z,0.00
2017-12-20T06:04:27.285Z,0.00
2017-12-20T06:05:02.751Z,0.00
2017-12-20T06:05:39.976Z,0.00
2017-12-20T06:06:15.458Z,0.00
2017-12-20T06:06:50.654Z,0.00
2017-12-20T06:07:26.023Z,0.00
2017-12-20T06:08:02.022Z,0.00
2017-12-20T06:08:37.330Z,0.00
2017-12-20T06:09:12.497Z,0.00
2017-12-20T06:09:47.885Z,0.00
2017-12-20T06:10:23.164Z,0.00
2017-12-20T06:10:58.463Z,0.00
2017-12-20T06:11:33.731Z,0.00
2017-12-20T06:12:09.129Z,0.00
2017-12-20T06:12:44.308Z,0.00
2017-12-20T06:13:19.596Z,0.00
2017-12-20T06:13:55.975Z,0.00
2017-12-20T06:14:31.169Z,0.00
2017-12-20T06:15:06.585Z,0.00
2017-12-20T06:15:42.255Z,0.00
2017-12-20T06:16:17.383Z,0.00
2017-12-20T06:16:55.064Z,0.00
2017-12-20T06:17:30.355Z,0.00
2017-12-20T06:18:07.030Z,0.00
2017-12-20T06:18:43.818Z,0.00
2017-12-20T06:19:19.119Z,0.00
2017-12-20T06:19:54.190Z,0.00
2017-12-20T06:20:29.480Z,0.00
2017-12-20T06:21:04.955Z,0.00
2017-12-20T06:21:40.172Z,0.00
2017-12-20T06:22:15.439Z,0.00
2017-12-20T06:22:50.741Z,0.00
2017-12-20T06:23:26.041Z,0.00
2017-12-20T06:24:01.240Z,0.00
2017-12-20T06:24:36.456Z,0.00
2017-12-20T06:25:11.753Z,0.00
2017-12-20T06:25:47.249Z,0.00
2017-12-20T06:26:22.315Z,0.00
2017-12-20T06:26:57.540Z,0.00
2017-12-20T06:27:33.005Z,0.00
2017-12-20T06:28:08.503Z,0.00
2017-12-20T06:28:47.763Z,0.00
2017-12-20T06:29:23.068Z,0.00
2017-12-20T06:29:58.442Z,0.00
2017-12-20T06:30:33.640Z,0.00
2017-12-20T06:31:12.244Z,0.00
2017-12-20T06:31:47.413Z,0.00
2017-12-20T06:32:29.937Z,0.00
2017-12-20T06:33:05.206Z,0.00
2017-12-20T06:33:41.607Z,0.00
2017-12-20T06:34:16.970Z,0.00
2017-12-20T06:34:52.266Z,0.00
2017-12-20T06:35:27.564Z,0.00
2017-12-20T06:36:02.949Z,0.00
2017-12-20T06:36:38.237Z,0.00
2017-12-20T06:37:14.106Z,0.00
2017-12-20T06:37:50.451Z,0.00
2017-12-20T06:38:25.920Z,0.00
2017-12-20T06:39:02.425Z,0.00
2017-12-20T06:39:37.886Z,0.00
2017-12-20T06:40:13.176Z,0.00
2017-12-20T06:40:48.383Z,0.00
2017-12-20T06:41:25.358Z,8.00
2017-12-20T06:42:00.944Z,8.00
2017-12-20T06:42:36.412Z,8.00
2017-12-20T06:43:11.831Z,8.00
2017-12-20T06:43:46.996Z,8.00
2017-12-20T06:44:22.306Z,8.00
2017-12-20T06:45:03.901Z,8.00
2017-12-20T06:45:39.196Z,8.00
2017-12-20T06:46:14.399Z,8.00
2017-12-20T06:46:53.065Z,8.00
2017-12-20T06:47:29.262Z,8.00
2017-12-20T06:48:04.529Z,8.00
2017-12-20T06:51:19.973Z,4.00
2017-12-20T06:51:55.347Z,4.00
2017-12-20T06:52:30.898Z,4.00
2017-12-20T06:53:06.079Z,4.00
2017-12-20T06:53:41.181Z,0.00
2017-12-20T06:54:16.730Z,0.00
2017-12-20T06:54:52.131Z,0.00
2017-12-20T06:55:27.384Z,0.00
2017-12-20T06:56:02.857Z,0.00
2017-12-20T06:56:38.218Z,0.00
2017-12-20T06:57:13.496Z,0.00
2017-12-20T06:57:48.643Z,0.00
2017-12-20T06:58:24.014Z,0.00
2017-12-20T06:58:59.494Z,0.00
2017-12-20T06:59:34.756Z,0.00
2017-12-20T07:00:10.260Z,0.00
2017-12-20T07:00:45.767Z,0.00
2017-12-20T07:01:20.798Z,0.00
2017-12-20T07:01:56.564Z,0.00
2017-12-20T07:02:31.941Z,0.00
2017-12-20T07:03:06.989Z,0.00
2017-12-20T07:03:42.471Z,0.00
2017-12-20T07:04:17.853Z,4.00
2017-12-20T07:04:53.001Z,4.00
2017-12-20T07:05:28.098Z,0.00
2017-12-20T07:06:03.354Z,0.00
2017-12-20T07:06:38.726Z,0.00
2017-12-20T07:07:14.388Z,0.00
2017-12-20T07:09:53.998Z,4.00
2017-12-20T07:10:29.290Z,0.00
2017-12-20T07:11:04.557Z,4.00
2017-12-20T07:11:39.904Z,4.00
2017-12-20T07:12:18.282Z,4.00
2017-12-20T07:12:53.560Z,4.00
2017-12-20T07:13:28.901Z,4.00
2017-12-20T07:14:04.775Z,4.00
2017-12-20T07:14:40.122Z,8.00
2017-12-20T07:15:15.419Z,8.00
2017-12-20T07:15:50.999Z,8.00
2017-12-20T07:16:26.176Z,8.00
2017-12-20T07:17:01.639Z,12.00
2017-12-20T07:17:41.109Z,12.00
2017-12-20T07:18:19.791Z,12.00
2017-12-20T07:19:01.066Z,16.00
2017-12-20T07:19:36.141Z,12.00
2017-12-20T07:20:11.397Z,16.00
2017-12-20T07:20:47.573Z,16.00
2017-12-20T07:21:22.952Z,20.00
2017-12-20T07:21:58.335Z,16.00
2017-12-20T07:22:33.419Z,20.00
2017-12-20T07:23:08.567Z,24.00
2017-12-20T07:23:43.846Z,20.00
2017-12-20T07:24:19.193Z,24.00
2017-12-20T07:24:54.589Z,28.00
2017-12-20T07:25:29.846Z,32.00
2017-12-20T07:26:05.029Z,32.00
2017-12-20T07:26:40.318Z,36.00
2017-12-20T07:27:15.496Z,40.00
2017-12-20T07:27:52.186Z,40.00
2017-12-20T07:28:27.442Z,40.00
2017-12-20T07:29:02.624Z,44.00
2017-12-20T07:29:38.581Z,44.00
2017-12-20T07:30:13.788Z,44.00
2017-12-20T07:30:51.711Z,48.00
2017-12-20T07:31:26.898Z,52.00
2017-12-20T07:32:02.290Z,56.00
2017-12-20T07:32:37.662Z,60.00
2017-12-20T07:33:13.255Z,64.00
2017-12-20T07:33:48.719Z,64.00
2017-12-20T07:34:24.095Z,68.00
2017-12-20T07:34:59.660Z,72.00
2017-12-20T07:35:34.944Z,72.00
2017-12-20T07:36:10.403Z,80.00
2017-12-20T07:36:45.585Z,80.00
2017-12-20T07:37:21.068Z,80.00
2017-12-20T07:37:58.657Z,88.00
2017-12-20T07:38:33.943Z,84.00
2017-12-20T07:39:09.319Z,92.00
2017-12-20T07:39:45.300Z,100.00
2017-12-20T07:40:20.659Z,112.00
2017-12-20T07:41:00.040Z,120.00
2017-12-20T07:41:38.003Z,128.00
2017-12-20T07:42:15.798Z,136.00
2017-12-20T07:42:53.309Z,140.00
2017-12-20T07:43:29.489Z,148.00
2017-12-20T07:44:04.669Z,140.00
2017-12-20T07:44:41.040Z,148.00
2017-12-20T07:45:16.433Z,152.00
2017-12-20T07:45:51.800Z,160.00
2017-12-20T07:46:27.181Z,152.00
2017-12-20T07:47:02.539Z,168.00
2017-12-20T07:47:37.745Z,172.00
2017-12-20T07:48:16.273Z,180.00
2017-12-20T07:48:55.146Z,188.00
2017-12-20T07:49:30.523Z,200.00
2017-12-20T07:50:05.982Z,212.00
2017-12-20T07:50:41.277Z,216.00
2017-12-20T07:51:16.432Z,232.00
2017-12-20T07:51:52.023Z,240.00
2017-12-20T07:52:27.577Z,264.00
2017-12-20T07:53:03.085Z,272.00
2017-12-20T07:53:38.266Z,284.00
2017-12-20T07:54:13.854Z,304.00
2017-12-20T07:54:49.630Z,300.00